createdAt,value
2023-03-19T00:00:36.888Z,2.50
2023-03-19T00:05:39.089Z,2.30
2023-03-19T00:10:41.157Z,2.83
2023-03-19T00:15:43.298Z,2.67
2023-03-19T00:20:45.823Z,3.00
2023-03-19T00:25:47.958Z,2.77
2023-03-19T00:30:50.408Z,2.93
2023-03-19T00:35:52.463Z,3.30
2023-03-19T00:40:54.767Z,3.03
2023-03-19T00:45:56.843Z,3.20
2023-03-19T00:51:04.726Z,3.37
2023-03-19T00:56:07.694Z,3.60
2023-03-19T01:01:11.471Z,3.17
2023-03-19T01:06:13.969Z,2.63
2023-03-19T01:11:17.356Z,3.20
2023-03-19T01:16:19.356Z,3.43
2023-03-19T01:21:22.000Z,4.67
2023-03-19T01:26:25.443Z,3.50
2023-03-19T01:31:31.456Z,3.90
2023-03-19T01:36:52.328Z,3.83
2023-03-19T01:42:04.338Z,3.27
2023-03-19T01:47:31.473Z,3.30
2023-03-19T01:53:02.954Z,4.10
2023-03-19T01:58:18.785Z,4.90
2023-03-19T02:03:42.617Z,4.33
2023-03-19T02:08:53.224Z,4.80
2023-03-19T02:13:55.114Z,5.13
2023-03-19T02:18:57.971Z,5.97
2023-03-19T02:24:17.204Z,6.50
2023-03-19T02:29:39.302Z,7.13
2023-03-19T02:34:43.643Z,7.60
2023-03-19T02:39:45.649Z,7.93
2023-03-19T02:44:47.795Z,8.83
2023-03-19T02:49:49.803Z,9.93
2023-03-19T02:54:51.682Z,9.90
2023-03-19T02:59:53.772Z,10.77
2023-03-19T03:04:55.847Z,11.80
2023-03-19T03:10:00.429Z,10.17
2023-03-19T03:15:03.803Z,10.93
2023-03-19T03:20:08.077Z,11.30
2023-03-19T03:25:11.306Z,11.37
2023-03-19T03:30:13.847Z,11.20
2023-03-19T03:35:21.744Z,11.90
2023-03-19T03:40:25.666Z,12.00
2023-03-19T03:45:27.977Z,11.60
2023-03-19T03:50:30.624Z,13.00
2023-03-19T03:55:37.735Z,13.40
2023-03-19T04:00:41.093Z,12.27
2023-03-19T04:05:47.540Z,12.03
2023-03-19T04:10:49.627Z,12.47
2023-03-19T04:15:54.754Z,13.20
2023-03-19T04:20:57.807Z,13.33
2023-03-19T04:26:01.745Z,14.43
2023-03-19T04:31:06.861Z,13.83
2023-03-19T04:36:12.048Z,15.47
2023-03-19T04:41:16.222Z,16.07
2023-03-19T04:46:28.630Z,15.00
2023-03-19T04:51:30.950Z,13.40
2023-03-19T04:56:33.355Z,11.27
2023-03-19T05:01:36.467Z,10.20
2023-03-19T05:06:41.896Z,9.10
2023-03-19T05:11:44.312Z,10.73
2023-03-19T05:16:52.976Z,9.93
2023-03-19T05:21:57.465Z,12.30
2023-03-19T05:27:01.225Z,14.37
2023-03-19T05:32:19.050Z,13.00
2023-03-19T05:37:22.492Z,12.97
2023-03-19T05:42:31.285Z,12.13
2023-03-19T05:47:35.076Z,13.50
2023-03-19T05:52:37.827Z,13.43
2023-03-19T05:57:40.339Z,12.77
2023-03-19T06:02:44.888Z,12.60
2023-03-19T06:08:10.146Z,11.63
2023-03-19T06:13:43.635Z,11.87
2023-03-19T06:18:50.940Z,11.17
2023-03-19T06:23:54.111Z,10.33
2023-03-19T06:29:04.264Z,10.23
2023-03-19T06:34:06.244Z,10.57
2023-03-19T06:39:17.432Z,8.50
2023-03-19T06:44:19.451Z,9.00
2023-03-19T06:49:21.981Z,7.27
2023-03-19T06:54:24.084Z,6.60
2023-03-19T06:59:26.607Z,7.80
2023-03-19T07:04:29.441Z,7.73
2023-03-19T07:09:32.300Z,7.37
2023-03-19T07:14:34.321Z,7.03
2023-03-19T07:19:36.167Z,7.43
2023-03-19T07:24:38.258Z,7.00
2023-03-19T07:29:40.360Z,6.20
2023-03-19T07:34:42.249Z,5.23
2023-03-19T07:39:44.144Z,4.90
2023-03-19T07:44:46.023Z,3.67
2023-03-19T07:49:48.323Z,4.57
2023-03-19T07:54:50.671Z,4.83
2023-03-19T07:59:53.049Z,4.73
2023-03-19T08:04:56.028Z,4.50
2023-03-19T08:09:59.035Z,3.47
2023-03-19T08:15:01.294Z,4.97
2023-03-19T08:20:05.463Z,5.03
2023-03-19T08:25:08.679Z,4.70
2023-03-19T08:30:11.479Z,5.10
2023-03-19T08:35:14.170Z,4.40
2023-03-19T08:40:16.631Z,4.38
2023-03-19T08:45:21.148Z,3.17
2023-03-19T08:50:23.771Z,3.40
2023-03-19T08:55:25.833Z,2.92
2023-03-19T09:00:28.259Z,3.97
2023-03-19T09:05:30.397Z,3.70
2023-03-19T09:10:33.126Z,3.40
2023-03-19T09:15:35.557Z,3.40
2023-03-19T09:20:37.849Z,3.08
2023-03-19T09:25:40.259Z,3.40
2023-03-19T09:30:43.380Z,3.80
2023-03-19T09:35:53.046Z,3.50
2023-03-19T09:41:16.603Z,3.65
2023-03-19T09:46:23.076Z,2.75
2023-03-19T09:51:35.610Z,2.55
2023-03-19T09:56:37.565Z,3.47
2023-03-19T10:01:45.525Z,2.97
2023-03-19T10:06:47.662Z,2.92
2023-03-19T10:12:05.209Z,3.72
2023-03-19T10:17:14.532Z,4.05
2023-03-19T10:22:21.928Z,3.58
2023-03-19T10:27:28.692Z,3.47
2023-03-19T10:32:46.538Z,3.60
2023-03-19T10:37:50.686Z,5.00
2023-03-19T10:43:00.967Z,4.00
2023-03-19T10:48:05.482Z,3.40
2023-03-19T10:53:29.394Z,4.10
2023-03-19T10:58:33.940Z,3.83
2023-03-19T11:03:49.516Z,4.25
2023-03-19T11:09:15.534Z,3.65
2023-03-19T11:14:26.634Z,3.67
2023-03-19T11:19:31.700Z,3.55
2023-03-19T11:24:37.809Z,3.92
2023-03-19T11:29:44.881Z,4.47
2023-03-19T11:35:13.322Z,4.63
2023-03-19T11:40:44.331Z,4.57
2023-03-19T11:46:24.398Z,5.80
2023-03-19T11:51:36.342Z,7.18
2023-03-19T11:56:47.192Z,8.35
2023-03-19T12:02:26.847Z,9.20
2023-03-19T12:07:42.463Z,8.93
2023-03-19T12:12:57.488Z,9.35
2023-03-19T12:18:30.204Z,11.75
2023-03-19T12:23:39.286Z,9.32
2023-03-19T12:28:57.806Z,9.30
2023-03-19T12:34:24.871Z,9.18
2023-03-19T12:39:34.564Z,9.65
2023-03-19T12:44:39.101Z,10.15
2023-03-19T12:49:48.383Z,9.15
2023-03-19T12:55:05.801Z,7.88
2023-03-19T13:00:20.302Z,7.90
2023-03-19T13:05:29.435Z,7.28
2023-03-19T13:10:35.213Z,7.05
2023-03-19T13:15:46.065Z,4.93
2023-03-19T13:21:29.496Z,4.72
2023-03-19T13:26:33.041Z,6.00
2023-03-19T13:31:36.637Z,5.18
2023-03-19T13:36:39.553Z,5.00
2023-03-19T13:41:42.636Z,5.32
2023-03-19T13:46:45.275Z,6.22
2023-03-19T13:51:50.706Z,5.78
2023-03-19T13:57:01.021Z,6.07
2023-03-19T14:02:22.882Z,6.47
2023-03-19T14:07:28.152Z,5.93
2023-03-19T14:12:34.125Z,5.63
2023-03-19T14:17:48.486Z,4.80
2023-03-19T14:23:03.389Z,5.07
2023-03-19T14:28:10.448Z,4.35
2023-03-19T14:33:22.774Z,4.82
2023-03-19T14:39:06.886Z,6.47
2023-03-19T14:44:46.010Z,6.77
2023-03-19T14:50:17.408Z,6.33
2023-03-19T14:55:19.387Z,6.53
2023-03-19T15:00:22.622Z,5.63
2023-03-19T15:05:36.711Z,5.17
2023-03-19T15:11:00.941Z,3.67
2023-03-19T15:16:24.201Z,2.87
2023-03-19T15:21:26.728Z,2.50
2023-03-19T15:26:37.570Z,2.10
2023-03-19T15:31:57.605Z,2.57
2023-03-19T15:37:14.137Z,2.40
2023-03-19T15:42:17.079Z,2.47
2023-03-19T15:47:28.935Z,3.67
2023-03-19T15:52:39.560Z,3.53
2023-03-19T15:57:42.761Z,3.80
2023-03-19T16:02:49.261Z,3.87
2023-03-19T16:08:00.428Z,3.93
2023-03-19T16:13:05.549Z,4.50
2023-03-19T16:18:16.606Z,3.53
2023-03-19T16:23:19.255Z,4.57
2023-03-19T16:28:25.182Z,4.20
2023-03-19T16:33:27.662Z,5.00
2023-03-19T16:39:13.816Z,5.33
2023-03-19T16:44:19.202Z,9.90
2023-03-19T16:49:21.484Z,9.83
2023-03-19T16:54:23.917Z,9.40
2023-03-19T16:59:31.023Z,10.53
2023-03-19T17:04:33.034Z,11.57
2023-03-19T17:09:35.225Z,9.47
2023-03-19T17:14:37.542Z,4.87
2023-03-19T17:19:40.430Z,3.67
2023-03-19T17:24:42.823Z,4.30
2023-03-19T17:29:44.854Z,5.00
2023-03-19T17:34:48.025Z,4.77
2023-03-19T17:39:51.052Z,4.73
2023-03-19T17:44:53.084Z,4.30
2023-03-19T17:49:56.375Z,4.27
2023-03-19T17:54:58.390Z,4.30
2023-03-19T18:00:00.382Z,3.67
2023-03-19T18:05:02.857Z,3.90
2023-03-19T18:10:05.232Z,4.50
2023-03-19T18:15:07.635Z,4.87
2023-03-19T18:20:17.155Z,4.87
2023-03-19T18:25:25.616Z,4.27
2023-03-19T18:30:29.751Z,4.73
2023-03-19T18:35:36.200Z,5.10
2023-03-19T18:40:38.331Z,4.63
2023-03-19T18:45:41.973Z,5.57
2023-03-19T18:50:43.947Z,4.87
2023-03-19T18:55:47.197Z,5.57
2023-03-19T19:00:50.857Z,4.00
2023-03-19T19:05:53.878Z,4.33
2023-03-19T19:11:03.948Z,4.60
2023-03-19T19:16:06.164Z,4.60
2023-03-19T19:21:08.819Z,4.60
2023-03-19T19:26:21.693Z,4.00
2023-03-19T19:31:26.743Z,5.00
2023-03-19T19:36:29.047Z,5.37
2023-03-19T19:41:33.908Z,5.53
2023-03-19T19:46:36.071Z,5.50
2023-03-19T19:51:39.075Z,5.30
2023-03-19T19:56:41.901Z,5.57
2023-03-19T20:01:44.035Z,5.60
2023-03-19T20:06:46.077Z,4.97
2023-03-19T20:11:48.456Z,5.43
2023-03-19T20:16:50.827Z,5.77
2023-03-19T20:21:53.399Z,5.97
2023-03-19T20:26:55.541Z,6.20
2023-03-19T20:31:59.051Z,6.47
2023-03-19T20:37:01.332Z,6.00
2023-03-19T20:42:03.740Z,7.07
2023-03-19T20:47:15.813Z,5.77
2023-03-19T20:52:18.121Z,6.73
2023-03-19T20:57:29.043Z,6.23
2023-03-19T21:02:31.061Z,6.13
2023-03-19T21:07:34.672Z,6.37
2023-03-19T21:12:36.709Z,7.20
2023-03-19T21:17:39.032Z,8.20
2023-03-19T21:22:41.894Z,7.30
2023-03-19T21:27:47.248Z,8.10
2023-03-19T21:32:49.845Z,7.70
2023-03-19T21:37:52.727Z,8.70
2023-03-19T21:43:01.282Z,8.10
2023-03-19T21:48:09.334Z,9.43
2023-03-19T21:53:12.845Z,8.93
2023-03-19T21:58:17.820Z,7.33
2023-03-19T22:03:21.806Z,7.63
2023-03-19T22:08:25.731Z,7.53
2023-03-19T22:13:35.882Z,8.30
2023-03-19T22:18:37.905Z,7.97
2023-03-19T22:23:39.893Z,8.23
2023-03-19T22:28:41.824Z,8.43
2023-03-19T22:33:43.717Z,7.97
2023-03-19T22:38:47.063Z,7.60
2023-03-19T22:43:50.034Z,7.20
2023-03-19T22:48:52.418Z,7.60
2023-03-19T22:53:55.496Z,7.07
2023-03-19T22:58:57.676Z,8.87
2023-03-19T23:04:21.947Z,8.80
2023-03-19T23:09:32.557Z,7.07
2023-03-19T23:14:36.638Z,7.27
2023-03-19T23:19:38.802Z,7.60
2023-03-19T23:24:42.192Z,8.73
2023-03-19T23:29:44.642Z,7.80
2023-03-19T23:34:58.071Z,8.20
2023-03-19T23:40:02.321Z,7.97
2023-03-19T23:45:05.256Z,8.40
2023-03-19T23:50:12.957Z,8.77
2023-03-19T23:55:14.824Z,8.50
